Time;durP1;ratioP1;P1;durP2;ratioP2;P2;SDS_P1;SDS_P2;PMS_P1;PMS_P2;Temp;Humidity;BMP_temperature;BMP_pressure;BME280_temperature;BME280_humidity;BME280_pressure;Samples;Min_cycle;Max_cycle;Signal;HPM_P1;HPM_P2
2023/02/17 00:01:28;;;;;;;17.63;12.48;;;10.60;99.90;;;;;;4994749;28;20033;-93
2023/02/17 00:03:53;;;;;;;18.98;13.70;;;10.50;99.90;;;;;;5011907;28;20474;-91
2023/02/17 00:06:25;;;;;;;21.27;14.80;;;10.50;99.90;;;;;;5012353;28;20022;-92
2023/02/17 00:08:51;;;;;;;18.43;13.77;;;10.60;99.90;;;;;;5009106;28;20390;-91
2023/02/17 00:11:17;;;;;;;19.63;15.05;;;10.50;99.90;;;;;;4993085;28;20045;-92
2023/02/17 00:13:43;;;;;;;19.10;14.05;;;10.50;99.90;;;;;;5005921;28;20386;-92
2023/02/17 00:16:19;;;;;;;17.23;13.77;;;10.50;99.90;;;;;;4991642;28;20026;-92
2023/02/17 00:18:45;;;;;;;18.17;14.32;;;10.50;99.90;;;;;;4994851;28;20553;-90
2023/02/17 00:21:20;;;;;;;21.55;14.98;;;10.50;99.90;;;;;;4994172;28;20038;-92
2023/02/17 00:23:47;;;;;;;19.63;14.60;;;10.50;99.90;;;;;;5019636;28;20034;-91
2023/02/17 00:26:14;;;;;;;20.50;15.70;;;10.50;99.90;;;;;;5012306;28;20072;-93
2023/02/17 00:28:39;;;;;;;19.50;14.63;;;10.50;99.90;;;;;;4992694;28;20018;-92
2023/02/17 00:31:10;;;;;;;22.80;17.13;;;10.50;99.90;;;;;;4993310;28;20042;-92
2023/02/17 00:33:36;;;;;;;22.77;17.40;;;10.50;99.90;;;;;;5014189;28;20022;-92
2023/02/17 00:36:04;;;;;;;22.63;17.42;;;10.50;99.90;;;;;;4996749;28;20034;-91
2023/02/17 00:38:29;;;;;;;20.27;16.25;;;10.50;99.90;;;;;;4991842;28;20122;-92
2023/02/17 00:40:55;;;;;;;20.25;15.88;;;10.50;99.90;;;;;;5006815;28;20056;-91
2023/02/17 00:43:20;;;;;;;23.20;17.13;;;10.60;99.90;;;;;;4999759;28;20057;-91
2023/02/17 00:45:46;;;;;;;18.30;14.57;;;10.50;99.90;;;;;;5005534;28;20042;-91
2023/02/17 00:48:11;;;;;;;20.20;14.88;;;10.50;99.90;;;;;;4994917;28;20023;-91
2023/02/17 00:50:37;;;;;;;19.35;14.85;;;10.60;99.90;;;;;;4996314;28;20444;-91
2023/02/17 00:53:03;;;;;;;18.48;14.15;;;10.60;99.90;;;;;;4997689;28;20500;-93
2023/02/17 00:55:28;;;;;;;16.77;13.57;;;10.60;99.90;;;;;;4997645;28;20034;-91
2023/02/17 00:57:54;;;;;;;16.75;13.40;;;10.60;99.90;;;;;;5014365;28;20044;-89
2023/02/17 01:00:19;;;;;;;14.77;11.88;;;10.60;99.90;;;;;;4997993;28;20029;-91
2023/02/17 01:02:45;;;;;;;17.20;12.40;;;10.60;99.90;;;;;;4997390;28;20429;-90
2023/02/17 01:05:10;;;;;;;15.20;11.20;;;10.60;99.90;;;;;;5018328;28;20034;-90
2023/02/17 01:07:36;;;;;;;14.68;10.98;;;10.70;99.90;;;;;;4997339;28;20033;-91
2023/02/17 01:10:03;;;;;;;13.55;10.52;;;10.60;99.90;;;;;;4998617;28;20036;-92
2023/02/17 01:12:29;;;;;;;14.73;11.07;;;10.70;99.90;;;;;;4995350;28;20081;-91
2023/02/17 01:14:54;;;;;;;14.05;10.70;;;10.70;99.90;;;;;;5001903;28;20394;-91
2023/02/17 01:17:20;;;;;;;17.10;10.77;;;10.70;99.90;;;;;;5001217;28;20025;-91
2023/02/17 01:19:45;;;;;;;13.80;10.48;;;10.70;99.90;;;;;;4997716;28;20026;-91
2023/02/17 01:22:11;;;;;;;14.73;10.52;;;10.70;99.90;;;;;;4987813;28;20035;-91
2023/02/17 01:24:38;;;;;;;14.80;11.05;;;10.70;99.90;;;;;;4994255;28;20045;-91
2023/02/17 01:27:03;;;;;;;13.88;10.35;;;10.70;99.90;;;;;;4986976;28;20034;-91
2023/02/17 01:29:29;;;;;;;13.02;10.10;;;10.70;99.90;;;;;;4997478;28;20458;-90
2023/02/17 01:31:55;;;;;;;13.32;9.73;;;10.70;99.90;;;;;;4994362;28;20049;-91
2023/02/17 01:34:20;;;;;;;11.77;9.05;;;10.70;99.90;;;;;;4995920;28;20033;-91
2023/02/17 01:36:46;;;;;;;14.77;10.07;;;10.70;99.90;;;;;;4990596;28;20037;-91
2023/02/17 01:39:15;;;;;;;13.13;9.30;;;10.70;99.90;;;;;;4989104;28;20054;-91
2023/02/17 01:41:41;;;;;;;13.45;9.93;;;10.70;99.90;;;;;;5013619;28;20034;-91
2023/02/17 01:44:19;;;;;;;12.18;9.95;;;10.70;99.90;;;;;;5006383;28;20026;-91
2023/02/17 01:46:47;;;;;;;13.80;9.90;;;10.70;99.90;;;;;;4996681;28;20102;-90
2023/02/17 01:49:31;;;;;;;12.02;9.23;;;10.70;99.90;;;;;;4997417;28;20030;-91
2023/02/17 01:52:21;;;;;;;18.52;10.77;;;10.70;99.90;;;;;;5011069;28;20137;-91
2023/02/17 01:54:53;;;;;;;15.20;10.73;;;10.70;99.90;;;;;;5014279;28;20033;-90
2023/02/17 01:57:22;;;;;;;16.27;11.32;;;10.70;99.90;;;;;;4997540;28;20026;-91
2023/02/17 01:59:48;;;;;;;14.55;10.65;;;10.70;99.90;;;;;;5014317;28;20038;-91
2023/02/17 02:02:15;;;;;;;19.23;12.00;;;10.70;99.90;;;;;;5013267;28;20076;-90
2023/02/17 02:04:44;;;;;;;17.83;11.93;;;10.70;99.90;;;;;;5000411;28;20036;-90
2023/02/17 02:07:16;;;;;;;17.45;11.27;;;10.70;99.90;;;;;;5013684;28;20108;-92
2023/02/17 02:09:54;;;;;;;17.05;11.98;;;10.70;99.90;;;;;;4996096;28;20022;-91
2023/02/17 02:12:25;;;;;;;18.63;12.60;;;10.70;99.90;;;;;;5011368;28;20041;-92
2023/02/17 02:14:51;;;;;;;19.52;12.77;;;10.70;99.90;;;;;;5020749;28;20072;-91
2023/02/17 02:17:44;;;;;;;22.75;14.48;;;10.70;99.90;;;;;;4996911;28;20034;-91
2023/02/17 02:20:19;;;;;;;;;;;10.80;99.90;;;;;;4993544;28;20116;-91
2023/02/17 02:23:20;;;;;;;20.85;12.55;;;10.80;99.90;;;;;;5015893;28;19917;-91
2023/02/17 02:26:16;;;;;;;21.77;13.93;;;10.70;99.90;;;;;;4996614;28;20108;-91
2023/02/17 02:28:48;;;;;;;19.65;11.48;;;10.70;99.90;;;;;;4995428;28;20038;-90
2023/02/17 02:31:41;;;;;;;21.55;13.18;;;10.70;99.90;;;;;;5002326;28;20115;-91
2023/02/17 02:34:33;;;;;;;19.30;12.48;;;10.70;99.90;;;;;;5000608;28;20446;-90
2023/02/17 02:37:04;;;;;;;22.15;12.88;;;10.70;99.90;;;;;;5017728;28;20528;-90
2023/02/17 02:39:36;;;;;;;20.52;12.70;;;10.70;99.90;;;;;;5013801;28;20033;-91
2023/02/17 02:42:06;;;;;;;15.68;11.05;;;10.70;99.90;;;;;;4996328;28;20393;-91
2023/02/17 02:44:32;;;;;;;19.95;12.68;;;10.70;99.90;;;;;;4995005;28;20030;-91
2023/02/17 02:47:02;;;;;;;18.05;12.57;;;10.70;99.90;;;;;;5005087;28;20036;-90
2023/02/17 02:49:29;;;;;;;14.10;10.43;;;10.70;99.90;;;;;;4997449;28;20482;-91
2023/02/17 02:52:24;;;;;;;17.05;12.73;;;10.70;99.90;;;;;;5012725;28;20060;-92
2023/02/17 02:55:05;;;;;;;17.02;12.48;;;10.70;99.90;;;;;;4976459;28;20045;-91
2023/02/17 02:57:52;;;;;;;15.45;11.50;;;10.70;99.90;;;;;;5001340;28;20036;-90
2023/02/17 03:00:37;;;;;;;19.13;13.02;;;10.70;99.90;;;;;;5024032;28;20092;-90
2023/02/17 03:03:29;;;;;;;17.85;12.00;;;10.70;99.90;;;;;;5004997;28;20068;-90
2023/02/17 03:06:26;;;;;;;14.27;9.95;;;10.70;99.90;;;;;;4993228;28;20045;-90
2023/02/17 03:08:57;;;;;;;16.58;11.85;;;10.70;99.90;;;;;;5005701;28;20057;-89
2023/02/17 03:11:33;;;;;;;16.38;11.57;;;10.60;99.90;;;;;;5019545;28;20109;-91
2023/02/17 03:14:05;;;;;;;17.63;11.60;;;10.70;99.90;;;;;;5003745;28;20385;-91
2023/02/17 03:16:32;;;;;;;15.90;11.70;;;10.70;99.90;;;;;;4995262;28;20033;-90
2023/02/17 03:18:58;;;;;;;16.85;11.73;;;10.70;99.90;;;;;;5002832;28;20023;-91
2023/02/17 03:21:28;;;;;;;16.80;10.65;;;10.70;99.90;;;;;;5004474;28;20026;-90
2023/02/17 03:23:53;;;;;;;17.17;11.20;;;10.70;99.90;;;;;;4997082;28;20022;-90
2023/02/17 03:26:19;;;;;;;17.63;12.50;;;10.70;99.90;;;;;;5020243;28;20037;-90
2023/02/17 03:28:44;;;;;;;16.52;12.27;;;10.70;99.90;;;;;;5006564;28;20017;-90
2023/02/17 03:31:10;;;;;;;17.00;12.05;;;10.60;99.90;;;;;;4994251;28;20496;-90
2023/02/17 03:33:35;;;;;;;14.95;11.02;;;10.60;99.90;;;;;;5005981;28;20691;-90
2023/02/17 03:36:01;;;;;;;16.80;11.95;;;10.60;99.90;;;;;;5012520;28;20021;-91
2023/02/17 03:38:26;;;;;;;17.48;12.77;;;10.60;99.90;;;;;;5017050;28;20171;-91
2023/02/17 03:40:52;;;;;;;18.58;12.52;;;10.70;99.90;;;;;;5006588;28;20497;-90
2023/02/17 03:43:18;;;;;;;16.25;12.32;;;10.60;99.90;;;;;;4994831;28;20466;-91
2023/02/17 03:45:43;;;;;;;18.98;13.52;;;10.60;99.90;;;;;;4998911;28;20470;-90
2023/02/17 03:48:09;;;;;;;20.20;12.80;;;10.60;99.90;;;;;;4995193;28;20080;-90
2023/02/17 03:50:34;;;;;;;22.42;14.23;;;10.70;99.90;;;;;;5012203;28;20088;-91
2023/02/17 03:53:00;;;;;;;20.35;14.63;;;10.70;99.90;;;;;;4995024;28;20026;-90
2023/02/17 03:55:25;;;;;;;20.45;15.15;;;10.60;99.90;;;;;;5005480;28;20023;-91
2023/02/17 03:57:51;;;;;;;22.02;14.93;;;10.60;99.90;;;;;;4995215;28;20029;-90
2023/02/17 04:00:17;;;;;;;22.90;16.77;;;10.60;99.90;;;;;;5011028;28;20041;-90
2023/02/17 04:02:42;;;;;;;25.80;17.33;;;10.60;99.90;;;;;;5006627;28;20081;-90
2023/02/17 04:05:08;;;;;;;22.90;16.15;;;10.60;99.90;;;;;;4997520;28;20022;-91
2023/02/17 04:07:33;;;;;;;26.15;18.50;;;10.60;99.90;;;;;;5014632;28;20038;-90
2023/02/17 04:09:59;;;;;;;27.33;19.55;;;10.60;99.90;;;;;;5014666;28;20036;-90
2023/02/17 04:12:24;;;;;;;26.00;18.17;;;10.60;99.90;;;;;;5011918;28;20033;-90
2023/02/17 04:14:50;;;;;;;26.23;18.55;;;10.60;99.90;;;;;;5016058;28;20033;-91
2023/02/17 04:17:15;;;;;;;25.92;18.55;;;10.60;99.90;;;;;;5004080;28;20022;-90
2023/02/17 04:19:41;;;;;;;25.05;18.17;;;10.60;99.90;;;;;;5018237;28;20072;-91
2023/02/17 04:22:07;;;;;;;26.40;19.27;;;10.60;99.90;;;;;;5005009;28;20037;-90
2023/02/17 04:24:35;;;;;;;27.17;18.08;;;10.60;99.90;;;;;;4993284;28;20022;-91
2023/02/17 04:27:02;;;;;;;28.38;20.25;;;10.60;99.90;;;;;;4995565;28;20026;-90
2023/02/17 04:29:27;;;;;;;29.80;18.85;;;10.60;99.90;;;;;;5015799;28;20022;-91
2023/02/17 04:31:53;;;;;;;27.15;18.75;;;10.60;99.90;;;;;;5014983;28;20112;-90
2023/02/17 04:34:18;;;;;;;29.58;18.02;;;10.60;99.90;;;;;;4998179;28;20022;-91
2023/02/17 04:36:44;;;;;;;28.52;20.15;;;10.60;99.90;;;;;;5013507;28;20057;-91
2023/02/17 04:39:09;;;;;;;30.55;18.75;;;10.60;99.90;;;;;;5016285;28;20061;-89
2023/02/17 04:41:35;;;;;;;30.63;19.35;;;10.60;99.90;;;;;;5015091;28;20111;-89
2023/02/17 04:44:00;;;;;;;30.95;20.13;;;10.60;99.90;;;;;;5012702;28;20033;-90
2023/02/17 04:46:26;;;;;;;30.35;19.83;;;10.70;99.90;;;;;;4997014;28;20014;-91
2023/02/17 04:48:51;;;;;;;27.52;19.08;;;10.60;99.90;;;;;;5015205;28;20492;-89
2023/02/17 04:51:17;;;;;;;29.42;20.60;;;10.60;99.90;;;;;;4999968;28;20038;-91
2023/02/17 04:53:42;;;;;;;29.15;21.10;;;10.60;99.90;;;;;;5000518;28;20386;-90
2023/02/17 04:56:08;;;;;;;30.83;21.30;;;10.60;99.90;;;;;;5001354;28;20033;-91
2023/02/17 04:58:33;;;;;;;28.77;21.10;;;10.60;99.90;;;;;;4999130;28;20030;-93
2023/02/17 05:01:00;;;;;;;29.05;20.95;;;10.60;99.90;;;;;;5021987;28;20037;-91
2023/02/17 05:03:25;;;;;;;31.80;22.05;;;10.60;99.90;;;;;;5016925;28;20018;-91
2023/02/17 05:05:51;;;;;;;32.25;21.90;;;10.70;99.90;;;;;;4998814;28;20041;-92
2023/02/17 05:08:16;;;;;;;30.23;21.50;;;10.60;99.90;;;;;;4997552;28;20054;-92
2023/02/17 05:10:42;;;;;;;28.63;20.70;;;10.60;99.90;;;;;;4997195;28;20074;-91
2023/02/17 05:13:07;;;;;;;31.38;22.67;;;10.60;99.90;;;;;;5015314;28;20438;-90
2023/02/17 05:15:33;;;;;;;31.40;22.33;;;10.60;99.90;;;;;;4993935;28;20026;-92
2023/02/17 05:17:58;;;;;;;28.58;21.60;;;10.50;99.90;;;;;;4993464;28;20053;-91
2023/02/17 05:20:24;;;;;;;31.45;21.70;;;10.50;99.90;;;;;;4996759;28;20470;-92
2023/02/17 05:22:50;;;;;;;30.80;21.00;;;10.40;99.90;;;;;;4997456;28;20022;-92
2023/02/17 05:25:15;;;;;;;29.73;21.20;;;10.40;99.90;;;;;;4996697;28;20034;-91
2023/02/17 05:27:41;;;;;;;26.77;18.85;;;10.40;99.90;;;;;;5009603;28;20061;-91
2023/02/17 05:30:06;;;;;;;32.05;21.33;;;10.30;99.90;;;;;;4994542;28;20018;-91
2023/02/17 05:32:32;;;;;;;31.05;21.05;;;10.30;99.90;;;;;;5013423;28;20046;-92
2023/02/17 05:34:57;;;;;;;31.95;22.13;;;10.30;99.90;;;;;;4997937;28;20029;-92
2023/02/17 05:37:23;;;;;;;32.15;22.63;;;10.30;99.90;;;;;;5000575;28;20040;-92
2023/02/17 05:39:49;;;;;;;32.15;22.17;;;10.30;99.90;;;;;;5027543;28;20053;-91
2023/02/17 05:42:14;;;;;;;30.98;21.98;;;10.30;99.90;;;;;;4997735;28;20120;-92
2023/02/17 05:44:40;;;;;;;34.95;23.40;;;10.40;99.90;;;;;;4997243;28;20469;-91
2023/02/17 05:47:05;;;;;;;33.70;22.50;;;10.40;99.90;;;;;;4997400;28;20058;-91
2023/02/17 05:49:31;;;;;;;33.10;24.20;;;10.40;99.90;;;;;;4996279;28;20064;-91
2023/02/17 05:51:56;;;;;;;34.42;23.38;;;10.40;99.90;;;;;;4993629;28;20042;-91
2023/02/17 05:54:22;;;;;;;37.33;25.17;;;10.40;99.90;;;;;;4996830;28;20017;-91
2023/02/17 05:56:47;;;;;;;35.22;24.85;;;10.50;99.90;;;;;;4996580;28;20506;-90
2023/02/17 05:59:13;;;;;;;32.13;23.13;;;10.50;99.90;;;;;;5027581;28;20026;-92
2023/02/17 06:01:38;;;;;;;34.30;23.15;;;10.50;99.90;;;;;;5016601;28;20030;-91
2023/02/17 06:04:04;;;;;;;37.80;24.35;;;10.50;99.90;;;;;;4988152;28;20217;-91
2023/02/17 06:06:30;;;;;;;32.60;23.58;;;10.50;99.90;;;;;;4996755;28;20672;-91
2023/02/17 06:08:55;;;;;;;31.75;22.92;;;10.50;99.90;;;;;;5002704;28;20073;-92
2023/02/17 06:11:21;;;;;;;32.55;23.58;;;10.50;99.90;;;;;;5000486;28;20049;-92
2023/02/17 06:13:46;;;;;;;30.45;21.48;;;10.50;99.90;;;;;;4997014;28;20030;-90
2023/02/17 06:16:12;;;;;;;31.50;23.15;;;10.50;99.90;;;;;;4996230;28;20029;-91
2023/02/17 06:18:37;;;;;;;30.25;21.58;;;10.50;99.90;;;;;;4996432;28;20057;-91
2023/02/17 06:21:03;;;;;;;32.60;22.02;;;10.50;99.90;;;;;;5014120;28;20029;-92
2023/02/17 06:23:28;;;;;;;31.30;21.90;;;10.50;99.90;;;;;;4991970;28;20018;-91
2023/02/17 06:25:54;;;;;;;30.02;21.75;;;10.50;99.90;;;;;;4996232;28;20036;-92
2023/02/17 06:28:20;;;;;;;31.67;21.73;;;10.50;99.90;;;;;;5023579;28;20022;-92
2023/02/17 06:30:46;;;;;;;33.88;22.67;;;10.50;99.90;;;;;;4993400;28;20038;-92
2023/02/17 06:33:11;;;;;;;32.22;21.60;;;10.60;99.90;;;;;;4996568;28;20565;-92
2023/02/17 06:35:37;;;;;;;28.92;20.73;;;10.50;99.90;;;;;;4996555;28;20061;-91
2023/02/17 06:38:03;;;;;;;28.80;20.15;;;10.50;99.90;;;;;;5009813;28;20088;-91
2023/02/17 06:40:28;;;;;;;31.88;21.42;;;10.60;99.90;;;;;;5004867;28;20172;-91
2023/02/17 06:42:54;;;;;;;30.08;20.95;;;10.50;99.90;;;;;;4996161;28;20048;-92
2023/02/17 06:45:19;;;;;;;31.73;21.55;;;10.50;99.90;;;;;;4993460;28;20026;-93
2023/02/17 06:47:45;;;;;;;29.42;21.75;;;10.60;99.90;;;;;;5016886;28;20120;-92
2023/02/17 06:50:11;;;;;;;33.30;21.00;;;10.60;99.90;;;;;;4995582;28;20033;-92
2023/02/17 06:52:37;;;;;;;29.35;21.00;;;10.60;99.90;;;;;;4992350;28;20042;-91
2023/02/17 06:55:03;;;;;;;32.85;21.90;;;10.60;99.90;;;;;;4990317;28;20038;-91
2023/02/17 06:57:29;;;;;;;29.42;20.13;;;10.60;99.90;;;;;;4996783;28;20034;-91
2023/02/17 06:59:54;;;;;;;30.55;20.42;;;10.60;99.90;;;;;;5015793;28;20179;-91
2023/02/17 07:02:20;;;;;;;30.55;20.92;;;10.60;99.90;;;;;;4995089;28;20041;-91
2023/02/17 07:04:45;;;;;;;29.33;20.10;;;10.60;99.90;;;;;;4996208;28;20064;-91
2023/02/17 07:07:12;;;;;;;32.58;22.13;;;10.60;99.90;;;;;;4987221;28;20467;-92
2023/02/17 07:09:39;;;;;;;31.92;22.55;;;10.60;99.90;;;;;;4993739;28;20022;-92
2023/02/17 07:12:05;;;;;;;35.92;24.45;;;10.70;99.90;;;;;;4993565;28;20042;-91
2023/02/17 07:14:32;;;;;;;34.03;23.58;;;10.60;99.90;;;;;;4994126;28;20113;-92
2023/02/17 07:16:58;;;;;;;34.08;23.25;;;10.70;99.90;;;;;;4995368;28;20117;-91
2023/02/17 07:19:24;;;;;;;34.80;22.92;;;10.70;99.90;;;;;;4997593;28;20109;-91
2023/02/17 07:21:49;;;;;;;35.80;23.67;;;10.70;99.90;;;;;;4993207;28;20033;-92
2023/02/17 07:24:15;;;;;;;33.92;22.90;;;10.70;99.90;;;;;;4990535;28;20026;-90
2023/02/17 07:26:40;;;;;;;36.42;23.33;;;10.70;99.90;;;;;;4989194;28;20030;-92
2023/02/17 07:29:06;;;;;;;35.05;22.02;;;10.80;99.90;;;;;;5017806;28;20029;-93
2023/02/17 07:31:33;;;;;;;32.95;22.33;;;10.80;99.90;;;;;;4990546;28;20037;-92
2023/02/17 07:33:59;;;;;;;37.00;23.30;;;10.80;99.90;;;;;;5000216;28;20026;-93
2023/02/17 07:36:25;;;;;;;35.45;21.70;;;10.80;99.90;;;;;;4994822;28;20164;-93
2023/02/17 07:38:51;;;;;;;36.05;21.60;;;10.80;99.90;;;;;;5009758;28;20077;-92
2023/02/17 07:41:19;;;;;;;32.90;21.15;;;10.80;99.90;;;;;;4985777;28;20045;-93
2023/02/17 11:16:26;;;;;;;5.15;3.45;;;12.80;99.90;;;;;;6250871;22;1212942;-86
2023/02/17 11:18:52;;;;;;;4.47;3.50;;;12.80;99.90;;;;;;6285876;22;20007;-86
2023/02/17 11:21:18;;;;;;;8.45;3.72;;;12.80;99.90;;;;;;6289665;22;20134;-86
2023/02/17 11:24:01;;;;;;;5.72;3.58;;;12.80;99.90;;;;;;6289344;22;20015;-86
2023/02/17 11:26:31;;;;;;;5.47;3.10;;;12.90;99.90;;;;;;6289291;22;20011;-88
2023/02/17 11:29:14;;;;;;;5.00;3.05;;;12.90;99.90;;;;;;6289607;22;20003;-86
2023/02/17 11:31:40;;;;;;;5.05;3.05;;;12.90;99.90;;;;;;6286694;22;20003;-89
2023/02/17 11:34:14;;;;;;;5.57;2.97;;;12.90;99.90;;;;;;6262307;22;20029;-85
2023/02/17 11:36:43;;;;;;;5.03;2.90;;;12.90;99.90;;;;;;6281799;22;19992;-85
2023/02/17 11:39:18;;;;;;;3.78;2.67;;;12.90;99.90;;;;;;6298250;22;19996;-88
2023/02/17 11:41:43;;;;;;;5.40;2.95;;;12.90;99.90;;;;;;6283848;22;20020;-85
2023/02/17 11:44:11;;;;;;;5.05;2.63;;;12.90;99.90;;;;;;6230265;22;20012;-85
2023/02/17 11:46:49;;;;;;;3.78;2.65;;;12.90;99.90;;;;;;6258017;22;20011;-88
2023/02/17 11:49:39;;;;;;;3.90;2.42;;;13.00;99.90;;;;;;6259582;22;20026;-85
2023/02/17 11:52:23;;;;;;;5.07;3.03;;;12.90;99.90;;;;;;6258816;22;20008;-88
2023/02/17 11:54:51;;;;;;;5.97;3.08;;;12.80;99.90;;;;;;6260499;22;20000;-87
2023/02/17 11:57:52;;;;;;;4.85;2.72;;;12.70;99.90;;;;;;6261019;22;20023;-87
2023/02/17 12:00:27;;;;;;;4.93;2.78;;;12.70;99.90;;;;;;6260187;22;20010;-87
2023/02/17 12:03:34;;;;;;;4.82;2.63;;;12.60;99.90;;;;;;6256981;22;20019;-88
2023/02/17 12:06:06;;;;;;;4.65;2.90;;;12.60;99.90;;;;;;6252661;22;20003;-87
2023/02/17 12:08:51;;;;;;;7.33;3.03;;;12.60;99.90;;;;;;6253329;22;20042;-87
2023/02/17 12:11:29;;;;;;;4.28;3.08;;;12.60;99.90;;;;;;6279002;22;20082;-88
2023/02/17 12:14:17;;;;;;;4.07;2.88;;;12.50;99.90;;;;;;6252878;22;20050;-87
2023/02/17 12:17:15;;;;;;;5.25;3.40;;;12.60;99.90;;;;;;6252915;22;20024;-88
2023/02/17 12:19:54;;;;;;;7.80;4.13;;;12.60;99.90;;;;;;6252853;22;20008;-88
2023/02/17 12:22:26;;;;;;;7.10;3.85;;;12.60;99.90;;;;;;6253073;22;20046;-87
2023/02/17 12:25:10;;;;;;;7.47;3.63;;;12.60;99.90;;;;;;6279126;22;20000;-87
2023/02/17 12:27:42;;;;;;;7.95;3.92;;;12.60;99.90;;;;;;6251608;22;20003;-88
2023/02/17 12:30:52;;;;;;;7.57;3.40;;;12.60;99.90;;;;;;6251567;22;20472;-88
2023/02/17 12:33:51;;;;;;;6.65;3.72;;;12.60;99.90;;;;;;6251374;22;20497;-87
2023/02/17 12:36:19;;;;;;;7.75;3.75;;;12.60;99.90;;;;;;6252070;22;19999;-87
2023/02/17 12:39:05;;;;;;;5.18;3.70;;;12.60;99.90;;;;;;6251567;22;20004;-88
2023/02/17 12:41:41;;;;;;;5.63;3.80;;;12.50;99.90;;;;;;6251395;22;20015;-86
2023/02/17 12:44:13;;;;;;;6.90;4.63;;;12.60;99.90;;;;;;6251143;22;20007;-86
2023/02/17 12:46:42;;;;;;;6.75;4.20;;;12.60;99.90;;;;;;6252423;22;20064;-87
2023/02/17 12:49:36;;;;;;;6.07;4.75;;;12.50;99.90;;;;;;6250151;22;20012;-86
2023/02/17 12:52:12;;;;;;;8.30;5.13;;;12.50;99.90;;;;;;6252055;22;20061;-86
2023/02/17 12:54:51;;;;;;;8.68;5.80;;;12.40;99.90;;;;;;6279027;22;20003;-86
2023/02/17 12:57:17;;;;;;;8.35;5.20;;;12.40;99.90;;;;;;6250273;22;20015;-86
2023/02/17 12:59:49;;;;;;;7.70;5.20;;;12.40;99.90;;;;;;6252705;22;20007;-85
2023/02/17 13:02:21;;;;;;;7.25;5.47;;;12.30;99.90;;;;;;6253995;22;20015;-86
2023/02/17 13:04:52;;;;;;;8.20;5.57;;;12.30;99.90;;;;;;6253620;22;20031;-87
2023/02/17 13:07:33;;;;;;;9.37;5.40;;;12.20;99.90;;;;;;6252841;22;20007;-88
2023/02/17 13:09:58;;;;;;;10.10;5.00;;;12.20;99.90;;;;;;6250844;22;20004;-88
2023/02/17 13:12:24;;;;;;;7.22;5.00;;;12.10;99.90;;;;;;6250602;22;20000;-87
2023/02/17 13:14:52;;;;;;;8.88;4.10;;;12.10;99.90;;;;;;6249279;22;20433;-89
2023/02/17 13:17:37;;;;;;;10.65;4.88;;;12.00;99.90;;;;;;6251161;22;20042;-86
2023/02/17 13:20:36;;;;;;;10.50;4.60;;;12.00;99.90;;;;;;6251406;22;20039;-87
2023/02/17 13:23:05;;;;;;;8.77;4.18;;;12.00;99.90;;;;;;6248887;22;20016;-88
2023/02/17 13:25:34;;;;;;;11.68;5.18;;;12.00;99.90;;;;;;6250680;22;20003;-88
2023/02/17 13:28:01;;;;;;;11.60;4.65;;;11.90;99.90;;;;;;6249830;22;20000;-87
2023/02/17 13:30:40;;;;;;;10.50;5.85;;;11.90;99.90;;;;;;6278432;22;20000;-85
2023/02/17 13:33:26;;;;;;;10.65;5.53;;;12.00;99.90;;;;;;6250356;22;20007;-87
2023/02/17 13:35:52;;;;;;;8.25;5.05;;;11.90;99.90;;;;;;6227913;22;20475;-88
2023/02/17 13:38:30;;;;;;;9.82;4.85;;;11.90;99.90;;;;;;6250081;22;20004;-88
2023/02/17 13:41:01;;;;;;;9.90;5.53;;;11.90;99.90;;;;;;6251520;22;20008;-87
2023/02/17 13:43:29;;;;;;;10.52;6.00;;;11.90;99.90;;;;;;6279559;22;20007;-88
2023/02/17 13:46:01;;;;;;;7.75;4.95;;;11.70;99.90;;;;;;6250233;22;20000;-86
2023/02/17 13:48:33;;;;;;;11.05;5.55;;;11.70;99.90;;;;;;6276778;22;20003;-87
2023/02/17 13:51:08;;;;;;;9.45;6.63;;;11.60;99.90;;;;;;6278047;22;19999;-85
2023/02/17 13:53:40;;;;;;;11.82;5.53;;;11.60;99.90;;;;;;6251010;22;19999;-86
2023/02/17 13:56:10;;;;;;;10.45;5.43;;;11.50;99.90;;;;;;6249371;22;20003;-84
2023/02/17 13:58:39;;;;;;;12.20;6.25;;;11.50;99.90;;;;;;6250208;22;20015;-87
2023/02/17 14:01:12;;;;;;;10.70;5.88;;;11.50;99.90;;;;;;6250543;22;20015;-85
2023/02/17 14:03:55;;;;;;;10.52;5.10;;;11.60;99.90;;;;;;6251957;22;20011;-86
2023/02/17 14:06:28;;;;;;;9.70;5.13;;;11.70;99.90;;;;;;6251570;22;20286;-85
2023/02/17 14:08:55;;;;;;;7.47;4.70;;;11.80;99.90;;;;;;6250781;22;20125;-85
2023/02/17 14:11:23;;;;;;;10.55;4.60;;;11.90;99.90;;;;;;6250755;22;20425;-87
2023/02/17 14:13:50;;;;;;;9.35;4.65;;;12.00;99.90;;;;;;6252592;22;20008;-92
2023/02/17 14:16:32;;;;;;;10.32;4.57;;;12.00;99.90;;;;;;6251956;22;20012;-87
2023/02/17 14:19:03;;;;;;;9.73;3.80;;;12.10;99.90;;;;;;6278378;22;19999;-87
2023/02/17 14:21:29;;;;;;;5.95;3.78;;;12.10;99.90;;;;;;6256976;22;20024;-86
2023/02/17 14:23:56;;;;;;;7.40;4.53;;;12.20;99.90;;;;;;6261500;22;20382;-87
2023/02/17 14:26:48;;;;;;;9.80;4.80;;;12.20;99.90;;;;;;6277933;22;20018;-88
2023/02/17 14:29:14;;;;;;;5.37;4.57;;;12.30;99.90;;;;;;6247378;22;20004;-87
2023/02/17 14:31:46;;;;;;;8.13;4.97;;;12.30;99.90;;;;;;6277167;22;20011;-88
2023/02/17 14:34:23;;;;;;;14.45;5.75;;;12.40;99.90;;;;;;6250996;22;20079;-88
2023/02/17 14:36:49;;;;;;;9.70;4.47;;;12.40;99.90;;;;;;6250830;22;20090;-89
2023/02/17 14:39:15;;;;;;;8.63;5.05;;;12.40;99.90;;;;;;6278301;22;20020;-88
2023/02/17 14:41:41;;;;;;;10.05;4.05;;;12.50;99.90;;;;;;6277137;22;20012;-87
2023/02/17 14:44:07;;;;;;;7.85;4.40;;;12.40;99.90;;;;;;6250518;22;20026;-87
2023/02/17 14:46:34;;;;;;;10.02;4.40;;;12.40;99.90;;;;;;6249925;22;20007;-88
2023/02/17 14:48:59;;;;;;;6.80;3.72;;;12.40;99.90;;;;;;6250462;22;20439;-87
2023/02/17 14:51:34;;;;;;;4.68;3.35;;;12.30;99.90;;;;;;6250348;22;20054;-87
2023/02/17 14:54:14;;;;;;;7.15;3.50;;;12.30;99.90;;;;;;6250632;22;20004;-87
2023/02/17 14:56:48;;;;;;;9.73;4.00;;;12.40;99.90;;;;;;6250509;22;19999;-86
2023/02/17 14:59:14;;;;;;;7.18;3.88;;;12.40;99.90;;;;;;6248856;22;20003;-87
2023/02/17 15:01:39;;;;;;;9.35;5.05;;;12.40;99.90;;;;;;6249572;22;20023;-87
2023/02/17 15:04:05;;;;;;;7.18;3.63;;;12.40;99.90;;;;;;6276144;22;20421;-87
2023/02/17 15:06:43;;;;;;;6.95;4.57;;;12.50;99.90;;;;;;6249338;22;20035;-87
2023/02/17 15:09:11;;;;;;;7.22;3.80;;;12.50;99.90;;;;;;6249262;22;20337;-86
2023/02/17 15:11:38;;;;;;;7.55;3.83;;;12.50;99.90;;;;;;6249302;22;20437;-87
2023/02/17 15:14:04;;;;;;;8.07;3.72;;;12.40;99.90;;;;;;6249102;22;20375;-86
2023/02/17 15:16:30;;;;;;;12.00;3.83;;;12.40;99.90;;;;;;6249354;22;20016;-86
2023/02/17 15:18:55;;;;;;;6.22;3.38;;;12.50;99.90;;;;;;6248537;22;20014;-88
2023/02/17 15:21:21;;;;;;;8.10;3.97;;;12.50;99.90;;;;;;6249152;22;20062;-88
2023/02/17 15:23:46;;;;;;;6.50;3.67;;;12.50;99.90;;;;;;6249008;22;20004;-87
2023/02/17 15:26:12;;;;;;;11.23;3.30;;;12.50;99.90;;;;;;6249724;22;20421;-87
2023/02/17 15:28:37;;;;;;;10.55;3.45;;;12.50;99.90;;;;;;6248267;22;20383;-87
2023/02/17 15:31:03;;;;;;;5.60;2.88;;;12.50;99.90;;;;;;6248768;22;20008;-87
2023/02/17 15:33:28;;;;;;;7.20;3.53;;;12.50;99.90;;;;;;6249854;22;20006;-87
2023/02/17 15:35:54;;;;;;;5.75;2.75;;;12.50;99.90;;;;;;6276582;22;20035;-87
2023/02/17 15:38:21;;;;;;;7.63;3.08;;;12.60;99.90;;;;;;6247571;22;20002;-86
2023/02/17 15:40:46;;;;;;;7.90;3.13;;;12.50;99.90;;;;;;6248864;22;20000;-87
2023/02/17 15:43:15;;;;;;;7.10;3.30;;;12.50;99.90;;;;;;6245165;22;20014;-85
2023/02/17 15:45:41;;;;;;;6.55;3.28;;;12.50;99.90;;;;;;6247601;22;20007;-87
2023/02/17 15:48:12;;;;;;;5.75;3.70;;;12.50;99.90;;;;;;6247893;22;20000;-87
2023/02/17 15:50:38;;;;;;;9.85;3.67;;;12.50;99.90;;;;;;6250373;22;20000;-87
2023/02/17 15:53:04;;;;;;;7.70;3.13;;;12.40;99.90;;;;;;6250447;22;20509;-87
2023/02/17 15:55:29;;;;;;;5.53;2.55;;;12.50;99.90;;;;;;6248841;22;20097;-87
2023/02/17 15:57:57;;;;;;;8.98;3.58;;;12.40;99.90;;;;;;6277739;22;20007;-88
2023/02/17 16:00:27;;;;;;;9.07;3.28;;;12.30;99.90;;;;;;6247645;22;20444;-87
2023/02/17 16:02:53;;;;;;;8.05;3.30;;;12.30;99.90;;;;;;6246135;22;20015;-87
2023/02/17 16:05:21;;;;;;;8.07;3.42;;;12.30;99.90;;;;;;6247978;22;20425;-87
2023/02/17 16:07:47;;;;;;;5.72;2.75;;;12.30;99.90;;;;;;6249521;22;20008;-87
2023/02/17 16:10:16;;;;;;;7.93;2.65;;;12.30;99.90;;;;;;6251134;22;20014;-87
2023/02/17 16:12:42;;;;;;;4.82;2.83;;;12.30;99.90;;;;;;6277883;22;20000;-87
2023/02/17 16:15:17;;;;;;;9.18;2.47;;;12.30;99.90;;;;;;6250407;22;20004;-87
2023/02/17 16:17:43;;;;;;;9.60;3.38;;;12.30;99.90;;;;;;6249747;22;20027;-87
2023/02/17 16:20:17;;;;;;;5.35;2.78;;;12.20;99.90;;;;;;6250931;22;20104;-87
2023/02/17 16:22:44;;;;;;;5.63;2.70;;;12.20;99.90;;;;;;6250893;22;20019;-87